Pagrindinis puslapis
METAR-TAF:

METAR-TAF

Oro uostai :

Ankoridžas, Aliaska, Jungtinės Amerikos Valstijos

platuma: 61-10-28N, ilguma: 149-59-46W, Aukštis: 44 m

Dabartinis oras

Ataskaita buvo paskelbta 39 minutes, ne 03:53 UTC
Vėjas 11 kt iš Šiaurės
Temperatūra 22°C
Drėgmė 29%
Slėgis 1020 hPa
Matomumas: 16.1 km
Giedras dangus

METAR: PANC 180353Z 35011KT 10SM CLR 22/03 A3012 RMK AO2 SLP200 T02220028

Laikas: 20:32 (04:32 UTC)

Prognozė

Ataskaita buvo paskelbta 5 valandos ir 5 minutes, ne 23:27 UTC
Prognozė galioja nuo 18 metu 00 UTC su 19 metu 06 UTC
Vėjas 12 kt iš Šiaurės su gūsio iki 20 kt
Matomumas: 10 km
Giedras dangus
Nuo 18 metu 0400 UTC
Vėjas 11 kt iš Šiaurės
Matomumas: 10 km
Giedras dangus
Nuo 18 metu 2000 UTC
Vėjas 12 kt iš Šiaurės su gūsio iki 20 kt
Matomumas: 10 km
Giedras dangus

TAF: PANC 172327Z 1800/1906 01012G20KT P6SM SKC FM180400 35011KT P6SM SKC FM182000 01012G20KT P6SM SKC

Orai ataskaitas ir orų prognozės (METAR, TAF).

turimą stotys yra geltonos ir raudonos taškus žemėlapyje.

Perkelti pele per norėdami pamatyti stoties vardą.

Tada spustelėkite, norėdami matyti oro stebėjimo ir prognozės.

Norėdami pakeisti žemėlapį: spustelėkite ant žalios mygtukų su juodo kryžiaus žemyn,; žalią mygtuką su brūkšneliu, jei norite nutolinti; arba žalių rodyklių gretimoms žemėlapius.


METAR-TAF: